sensor_id;sensor_type;location;lat;lon;timestamp;temperature;humidity
19970;DHT22;10146;47.754;9.566;2024-01-27T00:01:38;5.70;99.90
19970;DHT22;10146;47.754;9.566;2024-01-27T00:04:03;5.70;99.90
19970;DHT22;10146;47.754;9.566;2024-01-27T00:06:29;5.60;99.90
19970;DHT22;10146;47.754;9.566;2024-01-27T00:08:55;5.60;99.90
19970;DHT22;10146;47.754;9.566;2024-01-27T00:11:20;5.60;99.90
19970;DHT22;10146;47.754;9.566;2024-01-27T00:13:49;5.70;99.90
19970;DHT22;10146;47.754;9.566;2024-01-27T00:16:14;5.70;99.90
19970;DHT22;10146;47.754;9.566;2024-01-27T00:18:40;5.80;99.90
19970;DHT22;10146;47.754;9.566;2024-01-27T00:21:06;5.70;99.90
19970;DHT22;10146;47.754;9.566;2024-01-27T00:23:32;5.60;99.90
19970;DHT22;10146;47.754;9.566;2024-01-27T00:25:58;5.60;99.90
19970;DHT22;10146;47.754;9.566;2024-01-27T00:28:24;5.60;99.90
19970;DHT22;10146;47.754;9.566;2024-01-27T00:30:50;5.50;99.90
19970;DHT22;10146;47.754;9.566;2024-01-27T00:33:15;5.50;99.90
19970;DHT22;10146;47.754;9.566;2024-01-27T00:35:41;5.60;99.90
19970;DHT22;10146;47.754;9.566;2024-01-27T00:38:07;5.60;99.90
19970;DHT22;10146;47.754;9.566;2024-01-27T00:40:33;5.60;99.90
19970;DHT22;10146;47.754;9.566;2024-01-27T00:42:59;5.50;99.90
19970;DHT22;10146;47.754;9.566;2024-01-27T00:45:25;5.60;99.90
19970;DHT22;10146;47.754;9.566;2024-01-27T00:47:52;5.60;99.90
19970;DHT22;10146;47.754;9.566;2024-01-27T00:50:18;5.60;99.90
19970;DHT22;10146;47.754;9.566;2024-01-27T00:52:44;5.50;99.90
19970;DHT22;10146;47.754;9.566;2024-01-27T00:55:09;5.50;99.90
19970;DHT22;10146;47.754;9.566;2024-01-27T00:57:38;5.40;99.90
19970;DHT22;10146;47.754;9.566;2024-01-27T01:00:08;5.50;99.90
19970;DHT22;10146;47.754;9.566;2024-01-27T01:02:34;5.40;99.90
19970;DHT22;10146;47.754;9.566;2024-01-27T01:05:00;5.40;99.90
19970;DHT22;10146;47.754;9.566;2024-01-27T01:07:26;5.40;99.90
19970;DHT22;10146;47.754;9.566;2024-01-27T01:09:51;5.30;99.90
19970;DHT22;10146;47.754;9.566;2024-01-27T01:12:17;5.30;99.90
19970;DHT22;10146;47.754;9.566;2024-01-27T01:14:43;5.30;99.90
19970;DHT22;10146;47.754;9.566;2024-01-27T01:17:09;5.30;99.90
19970;DHT22;10146;47.754;9.566;2024-01-27T01:19:36;5.30;99.90
19970;DHT22;10146;47.754;9.566;2024-01-27T01:22:02;5.30;99.90
19970;DHT22;10146;47.754;9.566;2024-01-27T01:24:27;5.30;99.90
19970;DHT22;10146;47.754;9.566;2024-01-27T01:26:53;5.30;99.90
19970;DHT22;10146;47.754;9.566;2024-01-27T01:29:18;5.30;99.90
19970;DHT22;10146;47.754;9.566;2024-01-27T01:31:44;5.20;99.90
19970;DHT22;10146;47.754;9.566;2024-01-27T01:34:10;5.20;99.90
19970;DHT22;10146;47.754;9.566;2024-01-27T01:36:35;5.20;99.90
19970;DHT22;10146;47.754;9.566;2024-01-27T01:39:01;5.30;99.90
19970;DHT22;10146;47.754;9.566;2024-01-27T01:41:26;5.20;99.90
19970;DHT22;10146;47.754;9.566;2024-01-27T01:43:52;5.20;99.90
19970;DHT22;10146;47.754;9.566;2024-01-27T01:46:18;5.20;99.90
19970;DHT22;10146;47.754;9.566;2024-01-27T01:48:44;5.20;99.90
19970;DHT22;10146;47.754;9.566;2024-01-27T01:51:10;5.20;99.90
19970;DHT22;10146;47.754;9.566;2024-01-27T01:53:36;5.10;99.90
19970;DHT22;10146;47.754;9.566;2024-01-27T01:56:02;5.10;99.90
19970;DHT22;10146;47.754;9.566;2024-01-27T01:58:29;5.10;99.90
19970;DHT22;10146;47.754;9.566;2024-01-27T02:01:00;5.00;99.90
19970;DHT22;10146;47.754;9.566;2024-01-27T02:03:26;4.90;99.90
19970;DHT22;10146;47.754;9.566;2024-01-27T02:05:52;4.90;99.90
19970;DHT22;10146;47.754;9.566;2024-01-27T02:08:17;4.80;99.90
19970;DHT22;10146;47.754;9.566;2024-01-27T02:10:43;4.80;99.90
19970;DHT22;10146;47.754;9.566;2024-01-27T02:13:19;4.80;99.90
19970;DHT22;10146;47.754;9.566;2024-01-27T02:15:45;4.80;99.90
19970;DHT22;10146;47.754;9.566;2024-01-27T02:18:11;4.70;99.90
19970;DHT22;10146;47.754;9.566;2024-01-27T02:20:36;4.70;99.90
19970;DHT22;10146;47.754;9.566;2024-01-27T02:23:05;4.60;99.90
19970;DHT22;10146;47.754;9.566;2024-01-27T02:25:31;4.60;99.90
19970;DHT22;10146;47.754;9.566;2024-01-27T02:27:57;4.60;99.90
19970;DHT22;10146;47.754;9.566;2024-01-27T02:30:22;4.50;99.90
19970;DHT22;10146;47.754;9.566;2024-01-27T02:32:48;4.50;99.90
19970;DHT22;10146;47.754;9.566;2024-01-27T02:35:14;4.50;99.90
19970;DHT22;10146;47.754;9.566;2024-01-27T02:37:40;4.50;99.90
19970;DHT22;10146;47.754;9.566;2024-01-27T02:40:07;4.40;99.90
19970;DHT22;10146;47.754;9.566;2024-01-27T02:42:33;4.40;99.90
19970;DHT22;10146;47.754;9.566;2024-01-27T02:44:59;4.40;99.90
19970;DHT22;10146;47.754;9.566;2024-01-27T02:47:24;4.30;99.90
19970;DHT22;10146;47.754;9.566;2024-01-27T02:49:50;4.30;99.90
19970;DHT22;10146;47.754;9.566;2024-01-27T02:52:16;4.30;99.90
19970;DHT22;10146;47.754;9.566;2024-01-27T02:54:41;4.30;99.90
19970;DHT22;10146;47.754;9.566;2024-01-27T02:57:07;4.30;99.90
19970;DHT22;10146;47.754;9.566;2024-01-27T02:59:32;4.30;99.90
19970;DHT22;10146;47.754;9.566;2024-01-27T03:01:58;4.30;99.90
19970;DHT22;10146;47.754;9.566;2024-01-27T03:04:24;4.30;99.90
19970;DHT22;10146;47.754;9.566;2024-01-27T03:06:49;4.30;99.90
19970;DHT22;10146;47.754;9.566;2024-01-27T03:09:15;4.30;99.90
19970;DHT22;10146;47.754;9.566;2024-01-27T03:11:40;4.30;99.90
19970;DHT22;10146;47.754;9.566;2024-01-27T03:14:06;4.30;99.90
19970;DHT22;10146;47.754;9.566;2024-01-27T03:16:32;4.30;99.90
19970;DHT22;10146;47.754;9.566;2024-01-27T03:18:58;4.30;99.90
19970;DHT22;10146;47.754;9.566;2024-01-27T03:21:23;4.20;99.90
19970;DHT22;10146;47.754;9.566;2024-01-27T03:23:49;4.20;99.90
19970;DHT22;10146;47.754;9.566;2024-01-27T03:26:14;4.20;99.90
19970;DHT22;10146;47.754;9.566;2024-01-27T03:28:40;4.20;99.90
19970;DHT22;10146;47.754;9.566;2024-01-27T03:31:06;4.20;99.90
19970;DHT22;10146;47.754;9.566;2024-01-27T03:33:32;4.10;99.90
19970;DHT22;10146;47.754;9.566;2024-01-27T03:35:57;4.10;99.90
19970;DHT22;10146;47.754;9.566;2024-01-27T03:38:23;4.10;99.90
19970;DHT22;10146;47.754;9.566;2024-01-27T03:40:48;4.10;99.90
19970;DHT22;10146;47.754;9.566;2024-01-27T03:43:14;4.10;99.90
19970;DHT22;10146;47.754;9.566;2024-01-27T03:45:40;4.20;99.90
19970;DHT22;10146;47.754;9.566;2024-01-27T03:48:06;4.20;99.90
19970;DHT22;10146;47.754;9.566;2024-01-27T03:50:31;4.20;99.90
19970;DHT22;10146;47.754;9.566;2024-01-27T03:52:57;4.10;99.90
19970;DHT22;10146;47.754;9.566;2024-01-27T03:55:23;4.10;99.90
19970;DHT22;10146;47.754;9.566;2024-01-27T03:57:48;4.10;99.90
19970;DHT22;10146;47.754;9.566;2024-01-27T04:00:14;4.00;99.90
19970;DHT22;10146;47.754;9.566;2024-01-27T04:02:40;3.90;99.90
19970;DHT22;10146;47.754;9.566;2024-01-27T04:05:06;3.90;99.90
19970;DHT22;10146;47.754;9.566;2024-01-27T04:07:31;3.80;99.90
19970;DHT22;10146;47.754;9.566;2024-01-27T04:09:57;3.80;99.90
19970;DHT22;10146;47.754;9.566;2024-01-27T04:12:22;3.70;99.90
19970;DHT22;10146;47.754;9.566;2024-01-27T04:14:48;3.60;99.90
19970;DHT22;10146;47.754;9.566;2024-01-27T04:17:14;3.60;99.90
19970;DHT22;10146;47.754;9.566;2024-01-27T04:19:39;3.50;99.90
19970;DHT22;10146;47.754;9.566;2024-01-27T04:22:05;3.50;99.90
19970;DHT22;10146;47.754;9.566;2024-01-27T04:24:30;3.50;99.90
19970;DHT22;10146;47.754;9.566;2024-01-27T04:26:57;3.50;99.90
19970;DHT22;10146;47.754;9.566;2024-01-27T04:29:23;3.40;99.90
19970;DHT22;10146;47.754;9.566;2024-01-27T04:31:49;3.40;99.90
19970;DHT22;10146;47.754;9.566;2024-01-27T04:34:14;3.40;99.90
19970;DHT22;10146;47.754;9.566;2024-01-27T04:36:40;3.30;99.90
19970;DHT22;10146;47.754;9.566;2024-01-27T04:39:06;3.30;99.90
19970;DHT22;10146;47.754;9.566;2024-01-27T04:41:31;3.20;99.90
19970;DHT22;10146;47.754;9.566;2024-01-27T04:43:57;3.20;99.90
19970;DHT22;10146;47.754;9.566;2024-01-27T04:46:24;3.20;99.90
19970;DHT22;10146;47.754;9.566;2024-01-27T04:48:50;3.20;99.90
19970;DHT22;10146;47.754;9.566;2024-01-27T04:51:15;3.10;99.90
19970;DHT22;10146;47.754;9.566;2024-01-27T04:53:41;3.00;99.90
19970;DHT22;10146;47.754;9.566;2024-01-27T04:56:06;3.00;99.90
19970;DHT22;10146;47.754;9.566;2024-01-27T04:58:34;3.00;99.90
19970;DHT22;10146;47.754;9.566;2024-01-27T05:01:01;2.90;99.90
19970;DHT22;10146;47.754;9.566;2024-01-27T05:03:26;2.90;99.90
19970;DHT22;10146;47.754;9.566;2024-01-27T05:05:52;2.90;99.90
19970;DHT22;10146;47.754;9.566;2024-01-27T05:08:18;2.80;99.90
19970;DHT22;10146;47.754;9.566;2024-01-27T05:10:44;2.80;99.90
19970;DHT22;10146;47.754;9.566;2024-01-27T05:13:10;2.70;99.90
19970;DHT22;10146;47.754;9.566;2024-01-27T05:15:36;2.60;99.90
19970;DHT22;10146;47.754;9.566;2024-01-27T05:18:01;2.70;99.90
19970;DHT22;10146;47.754;9.566;2024-01-27T05:20:27;2.60;99.90
19970;DHT22;10146;47.754;9.566;2024-01-27T05:22:53;2.60;99.90
19970;DHT22;10146;47.754;9.566;2024-01-27T05:25:18;2.50;99.90
19970;DHT22;10146;47.754;9.566;2024-01-27T05:27:44;2.50;99.90
19970;DHT22;10146;47.754;9.566;2024-01-27T05:30:10;2.40;99.90
19970;DHT22;10146;47.754;9.566;2024-01-27T05:32:35;2.30;99.90
19970;DHT22;10146;47.754;9.566;2024-01-27T05:35:01;2.20;99.90
19970;DHT22;10146;47.754;9.566;2024-01-27T05:37:28;2.10;99.90
19970;DHT22;10146;47.754;9.566;2024-01-27T05:39:54;2.10;99.90
19970;DHT22;10146;47.754;9.566;2024-01-27T05:42:21;2.10;99.90
19970;DHT22;10146;47.754;9.566;2024-01-27T05:44:46;1.90;99.90
19970;DHT22;10146;47.754;9.566;2024-01-27T05:47:12;1.90;99.90
19970;DHT22;10146;47.754;9.566;2024-01-27T05:49:38;1.90;99.90
19970;DHT22;10146;47.754;9.566;2024-01-27T05:52:04;1.90;99.90
19970;DHT22;10146;47.754;9.566;2024-01-27T05:54:30;1.90;99.90
19970;DHT22;10146;47.754;9.566;2024-01-27T05:56:55;1.80;99.90
19970;DHT22;10146;47.754;9.566;2024-01-27T05:59:21;1.80;99.90
19970;DHT22;10146;47.754;9.566;2024-01-27T06:01:47;1.70;99.90
19970;DHT22;10146;47.754;9.566;2024-01-27T06:04:13;1.70;99.90
19970;DHT22;10146;47.754;9.566;2024-01-27T06:06:38;1.60;99.90
19970;DHT22;10146;47.754;9.566;2024-01-27T06:09:05;1.60;99.90
19970;DHT22;10146;47.754;9.566;2024-01-27T06:11:30;1.70;99.90
19970;DHT22;10146;47.754;9.566;2024-01-27T06:13:56;1.70;99.90
19970;DHT22;10146;47.754;9.566;2024-01-27T06:16:23;1.70;99.90
19970;DHT22;10146;47.754;9.566;2024-01-27T06:18:49;1.70;99.90
19970;DHT22;10146;47.754;9.566;2024-01-27T06:21:14;1.70;99.90
19970;DHT22;10146;47.754;9.566;2024-01-27T06:23:40;1.60;99.90
19970;DHT22;10146;47.754;9.566;2024-01-27T06:26:09;1.60;99.90
19970;DHT22;10146;47.754;9.566;2024-01-27T06:28:35;1.60;99.90
19970;DHT22;10146;47.754;9.566;2024-01-27T06:31:02;1.60;99.90
19970;DHT22;10146;47.754;9.566;2024-01-27T06:33:28;1.60;99.90
19970;DHT22;10146;47.754;9.566;2024-01-27T06:35:54;1.60;99.90
19970;DHT22;10146;47.754;9.566;2024-01-27T06:38:20;1.60;99.90
19970;DHT22;10146;47.754;9.566;2024-01-27T06:40:45;1.50;99.90
19970;DHT22;10146;47.754;9.566;2024-01-27T06:43:12;1.50;99.90
19970;DHT22;10146;47.754;9.566;2024-01-27T06:45:38;1.50;99.90
19970;DHT22;10146;47.754;9.566;2024-01-27T06:48:05;1.60;99.90
19970;DHT22;10146;47.754;9.566;2024-01-27T06:50:31;1.60;99.90
19970;DHT22;10146;47.754;9.566;2024-01-27T06:52:56;1.60;99.90
19970;DHT22;10146;47.754;9.566;2024-01-27T06:55:22;1.60;99.90
19970;DHT22;10146;47.754;9.566;2024-01-27T06:57:48;1.50;99.90
19970;DHT22;10146;47.754;9.566;2024-01-27T07:00:13;1.50;99.90
19970;DHT22;10146;47.754;9.566;2024-01-27T07:02:40;1.50;99.90
19970;DHT22;10146;47.754;9.566;2024-01-27T07:05:09;1.50;99.90
19970;DHT22;10146;47.754;9.566;2024-01-27T07:07:35;1.50;99.90
19970;DHT22;10146;47.754;9.566;2024-01-27T07:10:01;1.60;99.90
19970;DHT22;10146;47.754;9.566;2024-01-27T07:12:27;1.60;99.90
19970;DHT22;10146;47.754;9.566;2024-01-27T07:14:53;1.60;99.90
19970;DHT22;10146;47.754;9.566;2024-01-27T07:17:20;1.60;99.90
19970;DHT22;10146;47.754;9.566;2024-01-27T07:19:46;1.60;99.90
19970;DHT22;10146;47.754;9.566;2024-01-27T07:22:12;1.60;99.90
19970;DHT22;10146;47.754;9.566;2024-01-27T07:24:37;1.60;99.90
19970;DHT22;10146;47.754;9.566;2024-01-27T07:27:03;1.60;99.90
19970;DHT22;10146;47.754;9.566;2024-01-27T07:29:29;1.50;99.90
19970;DHT22;10146;47.754;9.566;2024-01-27T07:31:55;1.50;99.90
19970;DHT22;10146;47.754;9.566;2024-01-27T07:34:21;1.50;99.90
19970;DHT22;10146;47.754;9.566;2024-01-27T07:36:46;1.60;99.90
19970;DHT22;10146;47.754;9.566;2024-01-27T07:39:14;1.60;99.90
19970;DHT22;10146;47.754;9.566;2024-01-27T07:41:40;1.60;99.90
19970;DHT22;10146;47.754;9.566;2024-01-27T07:44:10;1.70;99.90
19970;DHT22;10146;47.754;9.566;2024-01-27T07:46:37;1.80;99.90
19970;DHT22;10146;47.754;9.566;2024-01-27T07:49:02;1.80;99.90
19970;DHT22;10146;47.754;9.566;2024-01-27T07:51:29;1.90;99.90
19970;DHT22;10146;47.754;9.566;2024-01-27T07:53:54;1.90;99.90
19970;DHT22;10146;47.754;9.566;2024-01-27T07:56:20;2.00;99.90
19970;DHT22;10146;47.754;9.566;2024-01-27T07:58:45;2.00;99.90
19970;DHT22;10146;47.754;9.566;2024-01-27T08:01:14;2.10;99.90
19970;DHT22;10146;47.754;9.566;2024-01-27T08:03:41;2.10;99.90
19970;DHT22;10146;47.754;9.566;2024-01-27T08:06:10;2.10;99.90
19970;DHT22;10146;47.754;9.566;2024-01-27T08:08:36;2.10;99.90
19970;DHT22;10146;47.754;9.566;2024-01-27T08:11:02;2.20;99.90
19970;DHT22;10146;47.754;9.566;2024-01-27T08:13:28;2.20;99.90
19970;DHT22;10146;47.754;9.566;2024-01-27T08:15:54;2.30;99.90
19970;DHT22;10146;47.754;9.566;2024-01-27T08:18:19;2.40;99.90
19970;DHT22;10146;47.754;9.566;2024-01-27T08:20:45;2.40;99.90
19970;DHT22;10146;47.754;9.566;2024-01-27T08:23:11;2.50;99.90
19970;DHT22;10146;47.754;9.566;2024-01-27T08:25:36;2.50;99.90
19970;DHT22;10146;47.754;9.566;2024-01-27T08:28:02;2.60;99.90
19970;DHT22;10146;47.754;9.566;2024-01-27T08:30:28;2.70;99.90
19970;DHT22;10146;47.754;9.566;2024-01-27T08:32:54;2.70;99.90
19970;DHT22;10146;47.754;9.566;2024-01-27T08:35:19;2.70;99.90
19970;DHT22;10146;47.754;9.566;2024-01-27T08:37:45;2.80;99.90
19970;DHT22;10146;47.754;9.566;2024-01-27T08:40:10;2.80;99.90
19970;DHT22;10146;47.754;9.566;2024-01-27T08:42:37;2.90;99.90
19970;DHT22;10146;47.754;9.566;2024-01-27T08:45:03;2.90;99.90
19970;DHT22;10146;47.754;9.566;2024-01-27T08:47:28;3.00;99.90
19970;DHT22;10146;47.754;9.566;2024-01-27T08:49:54;3.00;99.90
19970;DHT22;10146;47.754;9.566;2024-01-27T08:52:20;3.10;99.90
19970;DHT22;10146;47.754;9.566;2024-01-27T08:54:45;3.10;99.90
19970;DHT22;10146;47.754;9.566;2024-01-27T08:57:11;3.10;99.90
19970;DHT22;10146;47.754;9.566;2024-01-27T08:59:36;3.10;99.90
19970;DHT22;10146;47.754;9.566;2024-01-27T09:02:02;3.20;99.90
19970;DHT22;10146;47.754;9.566;2024-01-27T09:04:28;3.20;99.90
19970;DHT22;10146;47.754;9.566;2024-01-27T09:06:53;3.20;99.90
19970;DHT22;10146;47.754;9.566;2024-01-27T09:09:19;3.30;99.90
19970;DHT22;10146;47.754;9.566;2024-01-27T09:11:44;3.30;99.90
19970;DHT22;10146;47.754;9.566;2024-01-27T09:14:11;3.40;99.90
19970;DHT22;10146;47.754;9.566;2024-01-27T09:16:37;3.50;99.90
19970;DHT22;10146;47.754;9.566;2024-01-27T09:19:02;3.60;99.90
19970;DHT22;10146;47.754;9.566;2024-01-27T09:21:28;3.60;99.90
19970;DHT22;10146;47.754;9.566;2024-01-27T09:23:55;3.70;99.90
19970;DHT22;10146;47.754;9.566;2024-01-27T09:26:21;3.80;99.90
19970;DHT22;10146;47.754;9.566;2024-01-27T09:28:48;3.90;99.90
19970;DHT22;10146;47.754;9.566;2024-01-27T09:31:20;4.00;99.90
19970;DHT22;10146;47.754;9.566;2024-01-27T09:33:50;4.00;99.90
19970;DHT22;10146;47.754;9.566;2024-01-27T09:36:17;4.00;99.90
19970;DHT22;10146;47.754;9.566;2024-01-27T09:38:43;4.10;99.90
19970;DHT22;10146;47.754;9.566;2024-01-27T09:41:10;4.20;99.90
19970;DHT22;10146;47.754;9.566;2024-01-27T09:43:37;4.30;99.90
19970;DHT22;10146;47.754;9.566;2024-01-27T09:46:06;4.30;99.90
19970;DHT22;10146;47.754;9.566;2024-01-27T09:48:32;4.40;99.90
19970;DHT22;10146;47.754;9.566;2024-01-27T09:50:58;4.50;99.90
19970;DHT22;10146;47.754;9.566;2024-01-27T09:53:24;4.60;99.90
19970;DHT22;10146;47.754;9.566;2024-01-27T09:55:50;4.70;99.90
19970;DHT22;10146;47.754;9.566;2024-01-27T09:58:16;4.70;99.90
19970;DHT22;10146;47.754;9.566;2024-01-27T10:00:43;4.80;99.90
19970;DHT22;10146;47.754;9.566;2024-01-27T10:03:09;4.80;99.90
19970;DHT22;10146;47.754;9.566;2024-01-27T10:05:35;4.80;99.90
19970;DHT22;10146;47.754;9.566;2024-01-27T10:08:01;4.90;99.90
19970;DHT22;10146;47.754;9.566;2024-01-27T10:10:31;4.90;99.90
19970;DHT22;10146;47.754;9.566;2024-01-27T10:12:58;4.90;99.90
19970;DHT22;10146;47.754;9.566;2024-01-27T10:15:26;5.00;99.90
19970;DHT22;10146;47.754;9.566;2024-01-27T10:17:52;5.00;99.90
19970;DHT22;10146;47.754;9.566;2024-01-27T10:20:18;5.10;99.90
19970;DHT22;10146;47.754;9.566;2024-01-27T10:22:45;5.20;99.90
19970;DHT22;10146;47.754;9.566;2024-01-27T10:25:11;5.20;99.90
19970;DHT22;10146;47.754;9.566;2024-01-27T10:27:37;5.20;99.90
19970;DHT22;10146;47.754;9.566;2024-01-27T10:30:03;5.30;99.90
19970;DHT22;10146;47.754;9.566;2024-01-27T10:32:29;5.30;99.90
19970;DHT22;10146;47.754;9.566;2024-01-27T10:35:08;5.40;99.90
19970;DHT22;10146;47.754;9.566;2024-01-27T10:37:34;5.50;99.90
19970;DHT22;10146;47.754;9.566;2024-01-27T10:40:03;5.60;99.90
19970;DHT22;10146;47.754;9.566;2024-01-27T10:42:30;5.70;99.90
19970;DHT22;10146;47.754;9.566;2024-01-27T10:44:58;5.80;99.90
19970;DHT22;10146;47.754;9.566;2024-01-27T10:47:27;6.00;99.90
19970;DHT22;10146;47.754;9.566;2024-01-27T10:49:55;6.10;99.90
19970;DHT22;10146;47.754;9.566;2024-01-27T10:52:24;6.10;99.90
19970;DHT22;10146;47.754;9.566;2024-01-27T10:55:12;6.10;99.90
19970;DHT22;10146;47.754;9.566;2024-01-27T10:57:39;6.10;99.90
19970;DHT22;10146;47.754;9.566;2024-01-27T11:00:06;6.20;99.90
19970;DHT22;10146;47.754;9.566;2024-01-27T11:02:33;6.20;99.90
19970;DHT22;10146;47.754;9.566;2024-01-27T11:05:02;6.30;99.90
19970;DHT22;10146;47.754;9.566;2024-01-27T11:07:31;6.30;99.90
19970;DHT22;10146;47.754;9.566;2024-01-27T11:09:57;6.30;99.90
19970;DHT22;10146;47.754;9.566;2024-01-27T11:12:23;6.40;99.90
19970;DHT22;10146;47.754;9.566;2024-01-27T11:14:49;6.50;99.90
19970;DHT22;10146;47.754;9.566;2024-01-27T11:17:17;6.60;99.90
19970;DHT22;10146;47.754;9.566;2024-01-27T11:19:45;6.70;99.90
19970;DHT22;10146;47.754;9.566;2024-01-27T11:22:27;6.80;99.90
19970;DHT22;10146;47.754;9.566;2024-01-27T11:27:40;6.90;99.90
19970;DHT22;10146;47.754;9.566;2024-01-27T11:30:24;6.90;99.90
19970;DHT22;10146;47.754;9.566;2024-01-27T11:32:50;6.90;99.90
19970;DHT22;10146;47.754;9.566;2024-01-27T11:35:17;6.90;99.90
19970;DHT22;10146;47.754;9.566;2024-01-27T11:37:43;7.00;99.90
19970;DHT22;10146;47.754;9.566;2024-01-27T11:40:09;7.00;99.90
19970;DHT22;10146;47.754;9.566;2024-01-27T11:42:35;7.00;99.90
19970;DHT22;10146;47.754;9.566;2024-01-27T11:45:01;7.10;99.90
19970;DHT22;10146;47.754;9.566;2024-01-27T11:47:27;7.20;99.90
19970;DHT22;10146;47.754;9.566;2024-01-27T11:49:54;7.20;99.90
19970;DHT22;10146;47.754;9.566;2024-01-27T11:52:22;7.20;99.90
19970;DHT22;10146;47.754;9.566;2024-01-27T11:54:58;7.30;99.90
19970;DHT22;10146;47.754;9.566;2024-01-27T11:57:24;7.30;99.90
19970;DHT22;10146;47.754;9.566;2024-01-27T11:59:51;7.30;99.90
19970;DHT22;10146;47.754;9.566;2024-01-27T12:02:17;7.40;99.90
19970;DHT22;10146;47.754;9.566;2024-01-27T12:04:42;7.40;99.90
19970;DHT22;10146;47.754;9.566;2024-01-27T12:07:08;7.50;99.90
19970;DHT22;10146;47.754;9.566;2024-01-27T12:09:36;7.50;99.90
19970;DHT22;10146;47.754;9.566;2024-01-27T12:12:02;7.60;99.90
19970;DHT22;10146;47.754;9.566;2024-01-27T12:14:44;7.70;99.90
19970;DHT22;10146;47.754;9.566;2024-01-27T12:17:11;7.80;99.90
19970;DHT22;10146;47.754;9.566;2024-01-27T12:19:46;7.80;99.90
19970;DHT22;10146;47.754;9.566;2024-01-27T12:22:39;7.90;99.90
19970;DHT22;10146;47.754;9.566;2024-01-27T12:25:10;7.90;99.90
19970;DHT22;10146;47.754;9.566;2024-01-27T12:27:35;8.00;99.90
19970;DHT22;10146;47.754;9.566;2024-01-27T12:30:02;8.00;99.90
19970;DHT22;10146;47.754;9.566;2024-01-27T12:32:28;8.10;99.90
19970;DHT22;10146;47.754;9.566;2024-01-27T12:34:54;8.10;99.90
19970;DHT22;10146;47.754;9.566;2024-01-27T12:37:22;8.10;99.90
19970;DHT22;10146;47.754;9.566;2024-01-27T12:39:47;8.20;99.90
19970;DHT22;10146;47.754;9.566;2024-01-27T12:42:16;8.20;99.90
19970;DHT22;10146;47.754;9.566;2024-01-27T12:44:42;8.30;99.90
19970;DHT22;10146;47.754;9.566;2024-01-27T12:47:09;8.30;99.90
19970;DHT22;10146;47.754;9.566;2024-01-27T12:49:35;8.30;99.90
19970;DHT22;10146;47.754;9.566;2024-01-27T12:52:01;8.40;99.90
19970;DHT22;10146;47.754;9.566;2024-01-27T12:54:27;8.50;99.90
19970;DHT22;10146;47.754;9.566;2024-01-27T12:56:52;8.50;99.90
19970;DHT22;10146;47.754;9.566;2024-01-27T12:59:18;8.50;99.90
19970;DHT22;10146;47.754;9.566;2024-01-27T13:01:44;8.50;99.90
19970;DHT22;10146;47.754;9.566;2024-01-27T13:04:09;8.50;99.90
19970;DHT22;10146;47.754;9.566;2024-01-27T13:06:35;8.60;99.90
19970;DHT22;10146;47.754;9.566;2024-01-27T13:09:01;8.60;99.90
19970;DHT22;10146;47.754;9.566;2024-01-27T13:11:27;8.60;99.90
19970;DHT22;10146;47.754;9.566;2024-01-27T13:13:52;8.70;99.90
19970;DHT22;10146;47.754;9.566;2024-01-27T13:16:18;8.70;99.90
19970;DHT22;10146;47.754;9.566;2024-01-27T13:18:44;8.70;99.90
19970;DHT22;10146;47.754;9.566;2024-01-27T13:21:11;8.80;99.90
19970;DHT22;10146;47.754;9.566;2024-01-27T13:23:37;8.80;99.90
19970;DHT22;10146;47.754;9.566;2024-01-27T13:26:03;8.80;99.90
19970;DHT22;10146;47.754;9.566;2024-01-27T13:28:29;8.80;99.90
19970;DHT22;10146;47.754;9.566;2024-01-27T13:30:54;8.80;99.90
19970;DHT22;10146;47.754;9.566;2024-01-27T13:33:20;8.90;99.90
19970;DHT22;10146;47.754;9.566;2024-01-27T13:35:46;8.90;99.90
19970;DHT22;10146;47.754;9.566;2024-01-27T13:38:15;8.90;99.90
19970;DHT22;10146;47.754;9.566;2024-01-27T13:40:45;8.90;99.90
19970;DHT22;10146;47.754;9.566;2024-01-27T13:43:11;9.00;99.90
19970;DHT22;10146;47.754;9.566;2024-01-27T13:45:36;9.00;99.90
19970;DHT22;10146;47.754;9.566;2024-01-27T13:48:02;9.00;99.90
19970;DHT22;10146;47.754;9.566;2024-01-27T13:50:28;9.00;99.90
19970;DHT22;10146;47.754;9.566;2024-01-27T13:52:56;9.00;99.90
19970;DHT22;10146;47.754;9.566;2024-01-27T13:55:22;9.10;99.90
19970;DHT22;10146;47.754;9.566;2024-01-27T13:57:48;9.10;99.90
19970;DHT22;10146;47.754;9.566;2024-01-27T14:00:14;9.10;99.90
19970;DHT22;10146;47.754;9.566;2024-01-27T14:02:40;9.10;99.90
19970;DHT22;10146;47.754;9.566;2024-01-27T14:05:05;9.10;99.90
19970;DHT22;10146;47.754;9.566;2024-01-27T14:07:32;9.10;99.90
19970;DHT22;10146;47.754;9.566;2024-01-27T14:09:58;9.20;99.90
19970;DHT22;10146;47.754;9.566;2024-01-27T14:12:24;9.10;99.90
19970;DHT22;10146;47.754;9.566;2024-01-27T14:14:50;9.10;99.90
19970;DHT22;10146;47.754;9.566;2024-01-27T14:17:16;9.10;99.90
19970;DHT22;10146;47.754;9.566;2024-01-27T14:19:42;9.10;99.90
19970;DHT22;10146;47.754;9.566;2024-01-27T14:22:08;9.10;99.90
19970;DHT22;10146;47.754;9.566;2024-01-27T14:24:33;9.10;99.90
19970;DHT22;10146;47.754;9.566;2024-01-27T14:26:59;9.10;99.90
19970;DHT22;10146;47.754;9.566;2024-01-27T14:29:25;9.00;99.90
19970;DHT22;10146;47.754;9.566;2024-01-27T14:31:51;8.90;99.90
19970;DHT22;10146;47.754;9.566;2024-01-27T14:34:17;8.90;99.90
19970;DHT22;10146;47.754;9.566;2024-01-27T14:36:44;8.90;99.90
19970;DHT22;10146;47.754;9.566;2024-01-27T14:39:09;8.80;99.90
19970;DHT22;10146;47.754;9.566;2024-01-27T14:41:39;8.80;99.90
19970;DHT22;10146;47.754;9.566;2024-01-27T14:44:05;8.70;99.90
19970;DHT22;10146;47.754;9.566;2024-01-27T14:46:31;8.70;99.90
19970;DHT22;10146;47.754;9.566;2024-01-27T14:48:57;8.70;99.90
19970;DHT22;10146;47.754;9.566;2024-01-27T14:51:23;8.80;99.90
19970;DHT22;10146;47.754;9.566;2024-01-27T14:53:48;8.90;99.90
19970;DHT22;10146;47.754;9.566;2024-01-27T14:56:15;8.80;99.90
19970;DHT22;10146;47.754;9.566;2024-01-27T14:58:41;8.70;99.90
19970;DHT22;10146;47.754;9.566;2024-01-27T15:01:07;8.60;99.90
19970;DHT22;10146;47.754;9.566;2024-01-27T15:03:32;8.60;99.90
19970;DHT22;10146;47.754;9.566;2024-01-27T15:05:58;8.50;99.90
19970;DHT22;10146;47.754;9.566;2024-01-27T15:08:24;8.40;99.90
19970;DHT22;10146;47.754;9.566;2024-01-27T15:10:50;8.30;99.90
19970;DHT22;10146;47.754;9.566;2024-01-27T15:13:15;8.40;99.90
19970;DHT22;10146;47.754;9.566;2024-01-27T15:15:48;8.40;99.90
19970;DHT22;10146;47.754;9.566;2024-01-27T15:18:14;8.40;99.90
19970;DHT22;10146;47.754;9.566;2024-01-27T15:20:39;8.40;99.90
19970;DHT22;10146;47.754;9.566;2024-01-27T15:23:05;8.40;99.90
19970;DHT22;10146;47.754;9.566;2024-01-27T15:25:31;8.40;99.90
19970;DHT22;10146;47.754;9.566;2024-01-27T15:27:57;8.30;99.90
19970;DHT22;10146;47.754;9.566;2024-01-27T15:30:22;8.10;99.90
19970;DHT22;10146;47.754;9.566;2024-01-27T15:32:48;8.00;99.90
19970;DHT22;10146;47.754;9.566;2024-01-27T15:35:15;7.80;99.90
19970;DHT22;10146;47.754;9.566;2024-01-27T15:37:41;7.70;99.90
19970;DHT22;10146;47.754;9.566;2024-01-27T15:40:07;7.60;99.90
19970;DHT22;10146;47.754;9.566;2024-01-27T15:42:33;7.50;99.90